Terminal Aerodrome Forecast
Issued by NWS

Home | Current Version | Previous Version | Graphics & Text | Print | Product List | Glossary On
Versions: 1 2 3 4 5 6 7 8 9 10 11 12 13 14 15 16 17
216
FTUS43 KABR 161730
TAFPIR
TAF
KPIR 161730Z 1618/1718 15019G28KT P6SM BKN200
     FM162100 16014G21KT P6SM BKN200
     FM170200 22006KT P6SM BKN200
     FM170900 35006KT P6SM BKN070=

USA.gov is the U.S. government's official web portal to all federal, state and local government web resources and services.